Ocean View, NJ

9:53 PM EST on November 23, 2014 (GMT -0500)
Upper Township, Cape May County | Change Station
CLOSE
Current Station
Personal Weather Station
Location: Seaville, NJ
Elevation: 20 ft
Nearby Weather Stations

Elev 20 ft 39.20 °N, 74.71 °W | Updated 3 seconds ago

Overcast
Overcast
54.6 °F
Feels Like 54.6 °F
N
0.0
Wind Variable Wind from SSW
Gusts 7.0 mph

Today
High -- | Low -- °F
--% Chance of Precip.
Yesterday
High -- | Low -- °F
Precip. -- in
6:51 AM 4:39 PM
Waxing Crescent, 3% visible
Pressure 30.00 in
Visibility 10.0 miles
Clouds Overcast 4700 ft
Dew Point 52 °F
Humidity 91%
Rainfall 0.00 in
Snow Depth Not available.
UV 0 out of 12
Pollen .10 out of 12
Air Quality Not available.
Flu Activity Not available.
METAR KWWD 240235Z AUTO 13010G15KT 10SM OVC047 14/10 A3000 RMK AO1

More Conditions Fewer Conditions

Pressure 30.00 in
Visibility 10.0 miles
Clouds Overcast 4700 ft
Dew Point 52 °F
Humidity 91%
Rainfall 0.00 in
Snow Depth Not available.
UV 0 out of 12
Pollen .10 out of 12
Air Quality Not available.
Flu Activity Not available.
METAR KWWD 240235Z AUTO 13010G15KT 10SM OVC047 14/10 A3000 RMK AO1

More Conditions Fewer Conditions

Nowcast | as of 9:39 PM EST on November 23, 2014

Between now and 1100 PM, light rain will continue to spread northward over parts of northeastern Maryland, southeastern Pennsylvania, Delaware, southern New Jersey and the adjacent coastal waters.

×

10-Day Weather Forecast

Almanac

Astronomy

Nov. 23, 2014 Rise Set
Actual Time
Civil Twilight
Nautical Twilight
Astronomical Twilight
Moon
Length of Visible Light
Length of Day
Tomorrow will be .
, % of the Moon is Illuminated

Today's Extremes

State Highs State Lows

Community

WunderPhotos

Upload Photos

1,773,257 photos uploaded!

WunderBlogs® & News

Nearby

Air Quality

  Air Quality AQ Index Pollutant
Not available.

Snow Depth

Station Depth Elevation

Earthquake Activity

City Distance Mag. Time & Date
Minimum magnitude displayed is 2.5.

Coastal Water Temperatures

Place Temperature

Nearby Weather Stations